KBAB

Beale AFB Airport

Marysville, California, USA
METAR KBAB 190549Z AUTO 01008KT 9SM -DZ FEW017 FEW023 SCT030 BKN041 OVC049 12/10 A3036 RMK AO2 DZE15RAB15E28DZB28E30DZB49 SLPNO $
Observed Flight Rules
Jan-19 @ 05:49 UTC (26 minutes ago) Visual Flight Rules
Wind Visibility Clouds Conditions
10° at 8 knots 9 miles
  • Few at 1,700' AGL
  • Few at 2,300' AGL
  • Scattered at 3,000' AGL
  • Broken at 4,100' AGL
  • Light Drizzle
Temperatures Readings
Current 12°C / 54°F
Dewpoint 10°C / 50°F
Humidity 88%
Altimeter 30.36" Hg
Pressure 1028.12 hPa
Elevation 34
METAR KBAB 190549Z AUTO 01008KT 9SM -DZ FEW017 FEW023 SCT030 BKN041 OVC049 12/10 A3036 RMK AO2 DZE15RAB15E28DZB28E30DZB49 SLPNO $
Observed Flight Rules
Jan-19 @ 05:49 UTC
(26 minutes ago)
VFR
Wind Visibility
10° at 8 knots 9 miles
Clouds
  • Few at 1,700' AGL
  • Few at 2,300' AGL
  • Scattered at 3,000' AGL
  • Broken at 4,100' AGL
Conditions
  • Light Drizzle
Temperature Dewpoint
12°C / 54°F 10°C / 50°F
Humidity Altimeter Pressure
88% 30.36" Hg 1028.12 hPa